createdAt,value
2022-08-01T00:01:47.102Z,24.10
2022-08-01T00:04:17.333Z,24.10
2022-08-01T00:06:46.794Z,24.00
2022-08-01T00:09:23.660Z,24.00
2022-08-01T00:12:08.128Z,24.00
2022-08-01T00:14:36.310Z,24.00
2022-08-01T00:17:07.416Z,24.10
2022-08-01T00:22:32.829Z,23.90
2022-08-01T00:25:01.450Z,23.80
2022-08-01T00:27:29.430Z,23.80
2022-08-01T00:30:13.160Z,23.80
2022-08-01T00:32:45.624Z,23.80
2022-08-01T00:35:14.328Z,23.70
2022-08-01T00:37:45.266Z,23.70
2022-08-01T00:40:13.230Z,23.70
2022-08-01T00:42:43.837Z,23.60
2022-08-01T00:45:12.768Z,23.60
2022-08-01T00:47:41.370Z,23.50
2022-08-01T00:50:10.652Z,23.50
2022-08-01T00:52:40.606Z,23.40
2022-08-01T00:55:13.207Z,23.30
2022-08-01T00:58:03.655Z,23.30
2022-08-01T01:00:33.750Z,23.30
2022-08-01T01:03:09.756Z,23.30
2022-08-01T01:05:47.422Z,23.20
2022-08-01T01:08:24.446Z,23.20
2022-08-01T01:11:00.004Z,23.10
2022-08-01T01:13:37.106Z,23.10
2022-08-01T01:16:21.482Z,23.10
2022-08-01T01:18:53.566Z,23.10
2022-08-01T01:21:44.553Z,23.00
2022-08-01T01:24:21.437Z,22.90
2022-08-01T01:26:55.435Z,23.00
2022-08-01T01:29:29.358Z,22.90
2022-08-01T01:32:04.650Z,22.90
2022-08-01T01:34:37.502Z,22.90
2022-08-01T01:37:10.210Z,22.80
2022-08-01T01:39:39.685Z,22.80
2022-08-01T01:42:13.482Z,22.70
2022-08-01T01:44:45.146Z,22.70
2022-08-01T01:47:14.764Z,22.60
2022-08-01T01:49:46.070Z,22.60
2022-08-01T01:52:15.589Z,22.60
2022-08-01T01:54:49.414Z,22.50
2022-08-01T01:57:18.770Z,22.40
2022-08-01T01:59:50.053Z,22.40
2022-08-01T02:02:19.824Z,22.40
2022-08-01T02:04:49.530Z,22.50
2022-08-01T02:07:23.725Z,22.50
2022-08-01T02:09:53.639Z,22.50
2022-08-01T02:12:22.570Z,22.60
2022-08-01T02:14:54.479Z,22.60
2022-08-01T02:17:25.430Z,22.60
2022-08-01T02:19:54.598Z,22.70
2022-08-01T02:22:29.861Z,22.60
2022-08-01T02:25:04.628Z,22.70
2022-08-01T02:27:40.042Z,22.60
2022-08-01T02:30:12.550Z,22.60
2022-08-01T02:32:45.014Z,22.50
2022-08-01T02:35:19.053Z,22.50
2022-08-01T02:37:49.340Z,22.50
2022-08-01T02:40:19.371Z,22.40
2022-08-01T02:42:49.895Z,22.40
2022-08-01T02:45:20.213Z,22.40
2022-08-01T02:47:50.116Z,22.40
2022-08-01T02:50:21.259Z,22.40
2022-08-01T02:52:51.616Z,22.40
2022-08-01T02:55:21.824Z,22.40
2022-08-01T02:57:52.565Z,22.30
2022-08-01T03:00:27.470Z,22.30
2022-08-01T03:02:56.946Z,22.30
2022-08-01T03:05:26.839Z,22.20
2022-08-01T03:08:02.514Z,22.20
2022-08-01T03:10:33.402Z,22.20
2022-08-01T03:13:03.229Z,22.20
2022-08-01T03:15:35.785Z,22.10
2022-08-01T03:18:06.790Z,22.10
2022-08-01T03:20:35.924Z,22.10
2022-08-01T03:23:07.330Z,22.10
2022-08-01T03:25:38.831Z,22.10
2022-08-01T03:28:10.104Z,22.10
2022-08-01T03:30:41.619Z,22.10
2022-08-01T03:33:10.764Z,22.20
2022-08-01T03:35:47.859Z,22.10
2022-08-01T03:38:21.004Z,22.00
2022-08-01T03:40:54.103Z,21.90
2022-08-01T03:43:32.640Z,21.90
2022-08-01T03:46:08.450Z,21.90
2022-08-01T03:48:41.646Z,21.80
2022-08-01T03:51:10.917Z,21.70
2022-08-01T03:53:42.509Z,21.90
2022-08-01T03:56:12.317Z,21.80
2022-08-01T03:58:42.849Z,21.80
2022-08-01T04:01:15.274Z,21.80
2022-08-01T04:03:44.076Z,21.70
2022-08-01T04:06:14.188Z,21.70
2022-08-01T04:08:42.689Z,21.70
2022-08-01T04:11:11.734Z,21.80
2022-08-01T04:13:39.707Z,21.70
2022-08-01T04:16:13.757Z,21.70
2022-08-01T04:18:41.811Z,21.80
2022-08-01T04:21:10.301Z,21.70
2022-08-01T04:23:40.392Z,21.70
2022-08-01T04:26:11.304Z,21.70
2022-08-01T04:28:41.714Z,21.80
2022-08-01T04:31:12.437Z,21.80
2022-08-01T04:33:46.269Z,21.90
2022-08-01T04:36:16.178Z,21.70
2022-08-01T04:38:47.635Z,21.80
2022-08-01T04:41:18.274Z,21.80
2022-08-01T04:43:47.618Z,21.70
2022-08-01T04:46:16.201Z,21.80
2022-08-01T04:48:46.712Z,21.80
2022-08-01T04:51:17.263Z,21.90
2022-08-01T04:53:46.906Z,22.00
2022-08-01T04:56:15.291Z,22.00
2022-08-01T04:58:43.792Z,22.10
2022-08-01T05:01:12.611Z,22.10
2022-08-01T05:03:40.730Z,22.10
2022-08-01T05:06:10.156Z,22.20
2022-08-01T05:08:38.071Z,22.30
2022-08-01T05:11:06.495Z,22.40
2022-08-01T05:13:34.425Z,22.30
2022-08-01T05:16:04.570Z,22.40
2022-08-01T05:18:32.625Z,22.50
2022-08-01T05:21:00.785Z,22.40
2022-08-01T05:23:42.682Z,22.40
2022-08-01T05:26:11.658Z,22.50
2022-08-01T05:28:42.973Z,22.70
2022-08-01T05:31:10.994Z,22.70
2022-08-01T05:33:38.918Z,22.80
2022-08-01T05:36:07.484Z,22.90
2022-08-01T05:38:36.820Z,22.90
2022-08-01T05:41:05.007Z,23.00
2022-08-01T05:43:33.034Z,23.10
2022-08-01T05:46:01.956Z,23.20
2022-08-01T05:48:29.884Z,23.20
2022-08-01T05:50:59.032Z,23.30
2022-08-01T05:53:27.557Z,23.30
2022-08-01T05:55:56.949Z,23.40
2022-08-01T05:58:24.915Z,23.60
2022-08-01T06:00:52.989Z,23.60
2022-08-01T06:03:21.253Z,23.70
2022-08-01T06:05:49.298Z,23.70
2022-08-01T06:08:17.610Z,23.70
2022-08-01T06:10:45.627Z,23.80
2022-08-01T06:13:15.066Z,23.90
2022-08-01T06:15:43.033Z,24.10
2022-08-01T06:18:11.178Z,24.10
2022-08-01T06:20:39.322Z,24.20
2022-08-01T06:23:12.059Z,24.40
2022-08-01T06:25:56.166Z,24.40
2022-08-01T06:28:26.281Z,24.40
2022-08-01T06:30:54.557Z,24.50
2022-08-01T06:33:22.545Z,24.70
2022-08-01T06:35:50.259Z,24.80
2022-08-01T06:38:18.353Z,24.90
2022-08-01T06:40:46.233Z,24.70
2022-08-01T06:43:14.249Z,25.00
2022-08-01T06:45:43.651Z,25.10
2022-08-01T06:48:12.398Z,25.20
2022-08-01T06:50:40.313Z,25.30
2022-08-01T06:53:08.292Z,25.40
2022-08-01T06:55:36.410Z,25.70
2022-08-01T06:58:04.591Z,25.90
2022-08-01T07:00:32.710Z,26.20
2022-08-01T07:03:02.208Z,26.40
2022-08-01T07:05:32.013Z,26.60
2022-08-01T07:08:00.389Z,26.70
2022-08-01T07:10:28.381Z,27.10
2022-08-01T07:12:56.297Z,27.20
2022-08-01T07:15:27.579Z,27.20
2022-08-01T07:17:56.171Z,27.20
2022-08-01T07:20:25.498Z,27.00
2022-08-01T07:22:54.425Z,26.80
2022-08-01T07:25:24.778Z,26.70
2022-08-01T07:27:52.824Z,26.50
2022-08-01T07:30:20.743Z,26.50
2022-08-01T07:32:48.774Z,26.40
2022-08-01T07:35:16.984Z,26.40
2022-08-01T07:37:49.198Z,26.50
2022-08-01T07:40:19.262Z,26.40
2022-08-01T07:42:47.437Z,26.60
2022-08-01T07:45:15.874Z,26.70
2022-08-01T07:47:44.161Z,27.50
2022-08-01T07:50:13.502Z,28.00
2022-08-01T07:52:41.901Z,28.30
2022-08-01T07:55:16.281Z,28.60
2022-08-01T07:57:44.853Z,29.10
2022-08-01T08:00:14.035Z,30.20
2022-08-01T08:02:42.079Z,31.10
2022-08-01T08:05:10.724Z,31.90
2022-08-01T08:07:40.289Z,32.50
2022-08-01T08:10:09.052Z,33.00
2022-08-01T08:12:38.667Z,33.30
2022-08-01T08:15:07.720Z,32.70
2022-08-01T08:17:36.933Z,32.20
2022-08-01T08:20:09.275Z,31.90
2022-08-01T08:22:38.403Z,31.70
2022-08-01T08:25:07.842Z,31.90
2022-08-01T08:27:37.497Z,32.00
2022-08-01T08:30:09.402Z,31.90
2022-08-01T08:32:37.708Z,32.00
2022-08-01T08:35:07.048Z,31.90
2022-08-01T08:37:37.916Z,32.40
2022-08-01T08:40:08.618Z,32.60
2022-08-01T08:42:37.034Z,32.90
2022-08-01T08:45:05.423Z,33.50
2022-08-01T08:47:43.365Z,34.40
2022-08-01T08:50:11.581Z,35.10
2022-08-01T08:52:42.068Z,34.80
2022-08-01T08:55:11.907Z,35.00
2022-08-01T08:57:42.535Z,35.00
2022-08-01T09:00:12.707Z,35.30
2022-08-01T09:02:45.298Z,36.00
2022-08-01T09:05:17.570Z,35.10
2022-08-01T09:07:47.743Z,34.50
2022-08-01T09:10:15.935Z,34.20
2022-08-01T09:13:05.288Z,33.90
2022-08-01T09:15:45.597Z,33.10
2022-08-01T09:18:35.826Z,32.70
2022-08-01T09:21:11.682Z,32.50
2022-08-01T09:23:54.120Z,32.60
2022-08-01T09:26:31.300Z,32.90
2022-08-01T09:29:00.344Z,33.50
2022-08-01T09:31:38.224Z,34.30
2022-08-01T09:34:09.343Z,34.30
2022-08-01T09:36:54.411Z,34.50
2022-08-01T09:39:24.456Z,34.20
2022-08-01T09:41:53.230Z,34.10
2022-08-01T09:44:42.264Z,34.10
2022-08-01T09:47:11.629Z,35.10
2022-08-01T09:49:50.496Z,36.90
2022-08-01T09:52:26.109Z,37.60
2022-08-01T09:54:58.726Z,38.80
2022-08-01T09:57:27.522Z,40.20
2022-08-01T09:59:59.062Z,42.00
2022-08-01T10:02:31.797Z,42.20
2022-08-01T10:05:07.361Z,42.60
2022-08-01T10:07:43.930Z,43.20
2022-08-01T10:10:14.568Z,43.20
2022-08-01T10:12:45.685Z,43.80
2022-08-01T10:15:17.858Z,43.50
2022-08-01T10:17:52.059Z,43.60
2022-08-01T10:20:30.633Z,43.10
2022-08-01T10:23:05.975Z,42.30
2022-08-01T10:25:43.177Z,42.00
2022-08-01T10:28:24.209Z,42.40
2022-08-01T10:30:53.304Z,43.10
2022-08-01T10:33:50.953Z,43.30
2022-08-01T10:36:13.960Z,43.30
2022-08-01T10:38:42.703Z,43.00
2022-08-01T10:41:15.978Z,43.30
2022-08-01T10:43:45.493Z,43.20
2022-08-01T10:46:14.169Z,43.80
2022-08-01T10:48:49.347Z,43.50
2022-08-01T10:51:51.613Z,43.60
2022-08-01T10:54:12.435Z,42.90
2022-08-01T10:56:44.652Z,42.60
2022-08-01T10:59:17.647Z,42.30
2022-08-01T11:02:06.928Z,41.90
2022-08-01T11:04:51.646Z,41.10
2022-08-01T11:07:25.601Z,41.10
2022-08-01T11:10:14.627Z,41.40
2022-08-01T11:12:43.855Z,41.20
2022-08-01T11:15:36.264Z,40.80
2022-08-01T11:18:37.633Z,40.70
2022-08-01T11:21:57.764Z,40.70
2022-08-01T11:23:55.491Z,38.70
2022-08-01T11:26:29.001Z,37.00
2022-08-01T11:29:21.961Z,35.90
2022-08-01T11:31:50.968Z,34.50
2022-08-01T11:34:19.173Z,33.60
2022-08-01T11:37:03.725Z,32.80
2022-08-01T11:39:38.285Z,32.20
2022-08-01T11:42:22.659Z,31.90
2022-08-01T11:44:52.089Z,31.50
2022-08-01T11:47:21.290Z,31.70
2022-08-01T11:49:56.039Z,31.70
2022-08-01T11:52:28.975Z,31.50
2022-08-01T11:55:00.143Z,31.30
2022-08-01T11:57:34.213Z,31.40
2022-08-01T12:00:08.502Z,31.50
2022-08-01T12:02:37.111Z,31.50
2022-08-01T12:05:08.411Z,31.50
2022-08-01T12:07:41.170Z,31.30
2022-08-01T12:10:13.428Z,31.50
2022-08-01T12:12:45.659Z,31.50
2022-08-01T12:15:14.820Z,31.60
2022-08-01T12:17:47.115Z,31.70
2022-08-01T12:20:30.382Z,31.60
2022-08-01T12:22:59.890Z,31.50
2022-08-01T12:25:29.500Z,31.50
2022-08-01T12:28:01.235Z,31.60
2022-08-01T12:30:31.726Z,31.70
2022-08-01T12:33:00.291Z,31.60
2022-08-01T12:35:30.221Z,31.50
2022-08-01T12:38:00.322Z,31.40
2022-08-01T12:40:31.628Z,31.30
2022-08-01T12:43:03.051Z,31.20
2022-08-01T12:45:35.326Z,31.00
2022-08-01T12:48:04.683Z,30.90
2022-08-01T12:50:34.497Z,31.00
2022-08-01T12:53:04.191Z,31.00
2022-08-01T12:55:58.285Z,31.00
2022-08-01T12:58:33.654Z,31.10
2022-08-01T13:01:06.668Z,31.20
2022-08-01T13:03:36.467Z,31.30
2022-08-01T13:06:13.692Z,31.30
2022-08-01T13:08:41.934Z,31.50
2022-08-01T13:11:16.882Z,31.40
2022-08-01T13:13:48.024Z,31.20
2022-08-01T13:16:26.004Z,30.80
2022-08-01T13:19:03.114Z,30.50
2022-08-01T13:21:52.070Z,30.10
2022-08-01T13:24:27.050Z,29.40
2022-08-01T13:27:01.396Z,28.90
2022-08-01T13:29:34.577Z,28.60
2022-08-01T13:32:13.672Z,28.50
2022-08-01T13:35:03.953Z,28.30
2022-08-01T13:37:32.259Z,28.10
2022-08-01T13:40:00.981Z,28.00
2022-08-01T13:42:31.257Z,28.00
2022-08-01T13:44:59.288Z,28.00
2022-08-01T13:47:31.801Z,28.00
2022-08-01T13:50:01.633Z,28.10
2022-08-01T13:52:30.648Z,28.10
2022-08-01T13:54:58.769Z,28.10
2022-08-01T13:57:36.973Z,28.10
2022-08-01T14:00:09.515Z,28.20
2022-08-01T14:02:37.940Z,28.20
2022-08-01T14:05:06.807Z,28.20
2022-08-01T14:07:35.479Z,28.20
2022-08-01T14:10:19.884Z,28.20
2022-08-01T14:12:48.880Z,28.10
2022-08-01T14:15:38.603Z,28.10
2022-08-01T14:18:08.073Z,28.10
2022-08-01T14:20:39.273Z,28.10
2022-08-01T14:23:09.684Z,28.00
2022-08-01T14:26:01.696Z,27.90
2022-08-01T14:28:28.806Z,27.70
2022-08-01T14:30:59.798Z,27.70
2022-08-01T14:33:28.339Z,27.60
2022-08-01T14:36:06.135Z,27.50
2022-08-01T14:38:48.095Z,27.60
2022-08-01T14:41:17.608Z,27.50
2022-08-01T14:43:47.764Z,27.60
2022-08-01T14:46:20.583Z,27.60
2022-08-01T14:48:48.666Z,27.60
2022-08-01T14:51:17.261Z,27.70
2022-08-01T14:53:46.901Z,27.60
2022-08-01T14:56:19.307Z,27.60
2022-08-01T14:58:47.298Z,27.70
2022-08-01T15:01:19.163Z,27.50
2022-08-01T15:03:49.161Z,27.50
2022-08-01T15:06:17.295Z,27.40
2022-08-01T15:08:45.256Z,27.40
2022-08-01T15:11:13.609Z,27.40
2022-08-01T15:13:42.816Z,27.40
2022-08-01T15:16:11.877Z,27.40
2022-08-01T15:18:42.963Z,27.30
2022-08-01T15:21:17.266Z,27.20
2022-08-01T15:23:54.678Z,27.10
2022-08-01T15:26:24.032Z,27.00
2022-08-01T15:28:54.705Z,26.70
2022-08-01T15:31:23.848Z,26.50
2022-08-01T15:34:02.970Z,26.40
2022-08-01T15:36:33.226Z,26.10
2022-08-01T15:39:02.618Z,25.90
2022-08-01T15:41:33.139Z,25.70
2022-08-01T15:44:02.621Z,25.40
2022-08-01T15:46:32.373Z,25.30
2022-08-01T15:49:06.974Z,25.20
2022-08-01T15:51:36.189Z,25.10
2022-08-01T15:54:11.570Z,25.20
2022-08-01T15:56:42.529Z,25.20
2022-08-01T15:59:10.780Z,25.10
2022-08-01T16:01:38.710Z,25.10
2022-08-01T16:04:08.629Z,25.00
2022-08-01T16:06:37.691Z,24.90
2022-08-01T16:09:06.470Z,25.10
2022-08-01T16:11:35.820Z,24.90
2022-08-01T16:14:06.659Z,24.90
2022-08-01T16:16:34.759Z,24.80
2022-08-01T16:19:02.672Z,24.80
2022-08-01T16:21:32.202Z,24.80
2022-08-01T16:24:00.254Z,24.80
2022-08-01T16:26:28.422Z,24.80
2022-08-01T16:28:57.915Z,24.80
2022-08-01T16:31:41.542Z,24.90
2022-08-01T16:34:15.367Z,24.90
2022-08-01T16:36:44.960Z,24.90
2022-08-01T16:39:13.009Z,25.00
2022-08-01T16:41:41.071Z,25.00
2022-08-01T16:44:09.877Z,25.10
2022-08-01T16:46:37.940Z,25.20
2022-08-01T16:49:06.684Z,25.10
2022-08-01T16:51:40.725Z,25.10
2022-08-01T16:54:25.534Z,25.10
2022-08-01T16:56:54.431Z,25.00
2022-08-01T16:59:24.168Z,25.00
2022-08-01T17:01:59.536Z,25.10
2022-08-01T17:04:30.251Z,25.10
2022-08-01T17:06:58.351Z,25.00
2022-08-01T17:09:27.704Z,25.10
2022-08-01T17:11:55.612Z,25.00
2022-08-01T17:14:23.724Z,25.10
2022-08-01T17:16:51.691Z,25.20
2022-08-01T17:19:19.811Z,25.20
2022-08-01T17:21:54.932Z,25.30
2022-08-01T17:24:22.820Z,25.30
2022-08-01T17:26:52.354Z,25.30
2022-08-01T17:29:20.401Z,25.30
2022-08-01T17:31:48.668Z,25.40
2022-08-01T17:34:16.855Z,25.40
2022-08-01T17:36:44.862Z,25.30
2022-08-01T17:39:13.538Z,25.20
2022-08-01T17:41:41.782Z,25.20
2022-08-01T17:44:13.788Z,25.20
2022-08-01T17:46:42.338Z,25.10
2022-08-01T17:49:10.584Z,25.10
2022-08-01T17:51:38.676Z,25.10
2022-08-01T17:54:07.115Z,25.10
2022-08-01T17:56:39.281Z,25.20
2022-08-01T17:59:10.503Z,25.20
2022-08-01T18:01:38.551Z,25.30
2022-08-01T18:04:13.557Z,25.20
2022-08-01T18:06:58.453Z,25.20
2022-08-01T18:09:32.725Z,25.10
2022-08-01T18:12:02.108Z,25.10
2022-08-01T18:14:40.611Z,25.00
2022-08-01T18:17:11.332Z,25.00
2022-08-01T18:19:40.335Z,24.90
2022-08-01T18:22:25.682Z,24.90
2022-08-01T18:24:57.667Z,24.90
2022-08-01T18:27:25.742Z,24.80
2022-08-01T18:30:15.277Z,24.90
2022-08-01T18:32:43.656Z,24.80
2022-08-01T18:35:14.469Z,24.90
2022-08-01T18:37:54.426Z,24.80
2022-08-01T18:40:23.695Z,24.80
2022-08-01T18:42:52.489Z,24.70
2022-08-01T18:45:22.373Z,24.70
2022-08-01T18:47:50.508Z,24.50
2022-08-01T18:50:19.951Z,24.50
2022-08-01T18:52:48.839Z,24.50
2022-08-01T18:55:18.391Z,24.40
2022-08-01T18:57:46.412Z,24.60
2022-08-01T19:00:15.230Z,24.50
2022-08-01T19:02:44.794Z,24.50
2022-08-01T19:05:12.985Z,24.40
2022-08-01T19:08:05.337Z,24.30
2022-08-01T19:10:29.090Z,24.20
2022-08-01T19:12:57.037Z,24.00
2022-08-01T19:15:26.375Z,23.90
2022-08-01T19:17:55.742Z,23.70
2022-08-01T19:20:23.851Z,23.50
2022-08-01T19:22:51.934Z,23.30
2022-08-01T19:25:19.918Z,23.20
2022-08-01T19:27:50.223Z,23.20
2022-08-01T19:30:19.815Z,23.10
2022-08-01T19:32:48.803Z,23.00
2022-08-01T19:35:18.411Z,22.90
2022-08-01T19:37:47.764Z,22.80
2022-08-01T19:40:27.547Z,22.60
2022-08-01T19:42:57.456Z,22.50
2022-08-01T19:45:29.812Z,22.60
2022-08-01T19:47:58.251Z,22.50
2022-08-01T19:50:29.281Z,22.40
2022-08-01T19:52:58.982Z,22.40
2022-08-01T19:55:28.685Z,22.30
2022-08-01T19:58:25.378Z,22.30
2022-08-01T20:00:48.352Z,22.20
2022-08-01T20:03:19.396Z,22.00
2022-08-01T20:05:48.833Z,22.10
2022-08-01T20:08:18.212Z,22.00
2022-08-01T20:10:47.643Z,22.00
2022-08-01T20:13:15.977Z,22.10
2022-08-01T20:15:45.746Z,22.20
2022-08-01T20:18:13.741Z,22.20
2022-08-01T20:20:41.585Z,22.10
2022-08-01T20:23:18.225Z,22.00
2022-08-01T20:25:49.870Z,21.80
2022-08-01T20:28:22.722Z,21.70
2022-08-01T20:30:56.418Z,21.60
2022-08-01T20:33:24.692Z,21.60
2022-08-01T20:35:54.289Z,21.50
2022-08-01T20:38:27.710Z,21.50
2022-08-01T20:40:58.816Z,21.40
2022-08-01T20:43:27.972Z,21.50
2022-08-01T20:45:57.127Z,21.50
2022-08-01T20:48:27.400Z,21.50
2022-08-01T20:51:12.869Z,21.60
2022-08-01T20:53:44.849Z,21.50
2022-08-01T20:56:18.606Z,21.50
2022-08-01T20:58:58.590Z,21.50
2022-08-01T21:01:29.629Z,21.60
2022-08-01T21:04:14.215Z,21.60
2022-08-01T21:06:47.219Z,21.60
2022-08-01T21:09:21.512Z,21.50
2022-08-01T21:11:52.666Z,21.50
2022-08-01T21:14:22.494Z,21.50
2022-08-01T21:16:58.359Z,21.50
2022-08-01T21:19:28.852Z,21.40
2022-08-01T21:22:09.656Z,21.40
2022-08-01T21:24:58.431Z,21.50
2022-08-01T21:27:33.034Z,21.50
2022-08-01T21:30:04.137Z,21.50
2022-08-01T21:32:34.141Z,21.50
2022-08-01T21:35:03.435Z,21.50
2022-08-01T21:37:32.313Z,21.40
2022-08-01T21:40:09.492Z,21.30
2022-08-01T21:42:40.036Z,21.10
2022-08-01T21:45:10.665Z,20.90
2022-08-01T21:47:39.015Z,20.80
2022-08-01T21:50:09.470Z,20.80
2022-08-01T21:52:45.191Z,20.60
2022-08-01T21:55:34.978Z,20.60
2022-08-01T21:58:18.339Z,20.60
2022-08-01T22:00:53.146Z,20.30
2022-08-01T22:03:26.100Z,20.40
2022-08-01T22:05:55.948Z,20.40
2022-08-01T22:08:30.722Z,20.40
2022-08-01T22:11:06.095Z,20.40
2022-08-01T22:13:35.216Z,20.40
2022-08-01T22:16:04.872Z,20.30
2022-08-01T22:18:34.310Z,20.20
2022-08-01T22:21:03.679Z,20.10
2022-08-01T22:23:38.180Z,20.20
2022-08-01T22:26:10.721Z,20.00
2022-08-01T22:28:40.605Z,20.00
2022-08-01T22:31:08.678Z,19.90
2022-08-01T22:33:38.129Z,19.90
2022-08-01T22:36:07.875Z,19.80
2022-08-01T22:38:36.569Z,19.80
2022-08-01T22:41:07.511Z,19.80
2022-08-01T22:43:42.913Z,19.70
2022-08-01T22:46:26.162Z,19.60
2022-08-01T22:49:00.795Z,19.60
2022-08-01T22:51:37.631Z,19.60
2022-08-01T22:54:09.905Z,19.60
2022-08-01T22:56:48.323Z,19.60
2022-08-01T22:59:21.273Z,19.50
2022-08-01T23:01:51.026Z,19.50
2022-08-01T23:04:33.276Z,19.50
2022-08-01T23:07:05.918Z,19.50
2022-08-01T23:09:52.934Z,19.40
2022-08-01T23:12:24.381Z,19.40
2022-08-01T23:14:55.397Z,19.50
2022-08-01T23:17:27.608Z,19.50
2022-08-01T23:19:58.624Z,19.40
2022-08-01T23:22:30.710Z,19.30
2022-08-01T23:25:05.232Z,19.30
2022-08-01T23:27:51.502Z,19.30
2022-08-01T23:30:28.526Z,19.40
2022-08-01T23:32:56.694Z,19.40
2022-08-01T23:35:25.101Z,19.50
2022-08-01T23:37:55.860Z,19.50
2022-08-01T23:40:30.398Z,19.50
2022-08-01T23:42:58.475Z,19.40
2022-08-01T23:45:27.888Z,19.40
2022-08-01T23:47:56.234Z,19.40
2022-08-01T23:50:24.609Z,19.40
2022-08-01T23:52:56.739Z,19.40
2022-08-01T23:55:36.746Z,19.40
2022-08-01T23:58:06.246Z,19.40
